createdAt,value
2017-12-17T00:00:28.609Z,23.93
2017-12-17T00:02:55.336Z,15.53
2017-12-17T00:05:22.316Z,15.70
2017-12-17T00:07:49.824Z,16.03
2017-12-17T00:10:16.632Z,17.40
2017-12-17T00:12:43.353Z,19.77
2017-12-17T00:15:10.864Z,17.73
2017-12-17T00:17:37.604Z,17.73
2017-12-17T00:20:04.377Z,17.23
2017-12-17T00:22:31.140Z,17.13
2017-12-17T00:24:58.643Z,22.70
2017-12-17T00:27:25.471Z,18.17
2017-12-17T00:29:52.940Z,13.23
2017-12-17T00:32:19.718Z,19.80
2017-12-17T00:34:47.274Z,16.57
2017-12-17T00:37:14.866Z,14.70
2017-12-17T00:39:41.595Z,24.07
2017-12-17T00:42:08.329Z,19.00
2017-12-17T00:44:35.092Z,19.67
2017-12-17T00:47:01.838Z,17.27
2017-12-17T00:49:28.572Z,18.57
2017-12-17T00:51:55.312Z,21.23
2017-12-17T00:54:22.073Z,16.57
2017-12-17T00:56:48.858Z,17.03
2017-12-17T00:59:16.450Z,15.50
2017-12-17T01:01:43.215Z,17.07
2017-12-17T01:04:09.963Z,18.33
2017-12-17T01:06:36.688Z,16.63
2017-12-17T01:09:03.541Z,22.73
2017-12-17T01:11:30.289Z,21.87
2017-12-17T01:13:57.072Z,23.37
2017-12-17T01:16:23.835Z,21.30
2017-12-17T01:18:50.610Z,22.17
2017-12-17T01:21:17.359Z,29.30
2017-12-17T01:23:44.852Z,34.30
2017-12-17T01:26:11.593Z,29.40
2017-12-17T01:28:38.336Z,36.93
2017-12-17T01:31:05.079Z,36.37
2017-12-17T01:33:31.823Z,34.90
2017-12-17T01:35:58.565Z,39.23
2017-12-17T01:38:25.300Z,41.37
2017-12-17T01:40:52.109Z,44.10
2017-12-17T01:43:19.721Z,39.13
2017-12-17T01:45:46.468Z,37.37
2017-12-17T01:48:13.207Z,46.17
2017-12-17T01:50:40.089Z,43.97
2017-12-17T01:53:07.583Z,39.13
2017-12-17T01:55:34.335Z,48.37
2017-12-17T01:58:01.079Z,39.77
2017-12-17T02:00:27.827Z,40.27
2017-12-17T02:02:56.211Z,40.03
2017-12-17T02:05:22.938Z,37.07
2017-12-17T02:07:50.454Z,34.77
2017-12-17T02:10:17.182Z,36.33
2017-12-17T02:12:43.937Z,37.33
2017-12-17T02:15:10.666Z,37.93
2017-12-17T02:17:37.401Z,35.37
2017-12-17T02:20:04.130Z,37.40
2017-12-17T02:22:30.864Z,44.83
2017-12-17T02:24:57.612Z,39.47
2017-12-17T02:27:24.350Z,38.30
2017-12-17T02:29:51.083Z,35.17
2017-12-17T02:32:18.587Z,37.47
2017-12-17T02:34:45.328Z,34.87
2017-12-17T02:37:12.075Z,34.80
2017-12-17T02:39:38.803Z,36.40
2017-12-17T02:42:05.552Z,32.83
2017-12-17T02:44:32.289Z,36.30
2017-12-17T02:46:59.034Z,35.33
2017-12-17T02:49:25.780Z,33.13
2017-12-17T02:51:52.863Z,33.40
2017-12-17T02:54:19.597Z,31.60
2017-12-17T02:56:47.079Z,31.17
2017-12-17T02:59:13.829Z,25.37
2017-12-17T03:01:40.600Z,33.17
2017-12-17T03:04:07.324Z,39.87
2017-12-17T03:06:34.059Z,31.83
2017-12-17T03:09:00.802Z,29.73
2017-12-17T03:11:27.579Z,33.00
2017-12-17T03:13:55.079Z,33.37
2017-12-17T03:16:21.818Z,29.20
2017-12-17T03:18:48.550Z,35.77
2017-12-17T03:21:15.290Z,27.07
2017-12-17T03:23:42.027Z,35.30
2017-12-17T03:26:08.757Z,32.20
2017-12-17T03:28:35.492Z,27.53
2017-12-17T03:31:02.230Z,36.87
2017-12-17T03:33:28.973Z,35.63
2017-12-17T03:35:55.700Z,38.30
2017-12-17T03:38:22.447Z,35.73
2017-12-17T03:40:49.171Z,41.37
2017-12-17T03:43:16.043Z,33.57
2017-12-17T03:45:42.780Z,37.37
2017-12-17T03:48:09.538Z,34.53
2017-12-17T03:50:36.271Z,33.33
2017-12-17T03:53:03.030Z,38.23
2017-12-17T03:55:29.761Z,36.37
2017-12-17T03:57:56.488Z,42.93
2017-12-17T04:00:23.283Z,35.67
2017-12-17T04:02:50.850Z,33.40
2017-12-17T04:05:17.590Z,32.97
2017-12-17T04:07:44.315Z,33.43
2017-12-17T04:10:11.836Z,31.77
2017-12-17T04:12:38.560Z,35.10
2017-12-17T04:15:05.331Z,36.93
2017-12-17T04:17:32.830Z,36.93
2017-12-17T04:19:59.612Z,30.40
2017-12-17T04:22:27.846Z,34.40
2017-12-17T04:24:54.609Z,37.20
2017-12-17T04:27:21.368Z,38.57
2017-12-17T04:29:48.117Z,36.87
2017-12-17T04:32:14.851Z,36.87
2017-12-17T04:34:41.710Z,31.07
2017-12-17T04:37:09.286Z,34.53
2017-12-17T04:39:36.019Z,43.93
2017-12-17T04:42:02.761Z,42.13
2017-12-17T04:44:29.496Z,38.87
2017-12-17T04:46:56.239Z,36.63
2017-12-17T04:49:22.961Z,42.60
2017-12-17T04:51:50.478Z,37.90
2017-12-17T04:54:17.211Z,41.10
2017-12-17T04:56:43.952Z,40.53
2017-12-17T04:59:10.856Z,37.13
2017-12-17T05:01:37.603Z,44.00
2017-12-17T05:04:04.329Z,38.27
2017-12-17T05:06:31.833Z,44.13
2017-12-17T05:08:58.584Z,42.10
2017-12-17T05:11:25.314Z,48.17
2017-12-17T05:13:52.059Z,40.47
2017-12-17T05:16:18.820Z,47.20
2017-12-17T05:18:45.572Z,40.53
2017-12-17T05:21:13.068Z,40.70
2017-12-17T05:23:39.808Z,44.90
2017-12-17T05:26:06.552Z,46.60
2017-12-17T05:28:33.286Z,43.77
2017-12-17T05:31:00.031Z,39.30
2017-12-17T05:33:26.775Z,44.23
2017-12-17T05:35:53.516Z,46.20
2017-12-17T05:38:20.263Z,44.53
2017-12-17T05:40:47.058Z,42.57
2017-12-17T05:45:43.490Z,40.33
2017-12-17T05:48:10.315Z,39.40
2017-12-17T05:50:38.552Z,48.10
2017-12-17T05:53:05.280Z,39.10
2017-12-17T05:55:32.027Z,38.17
2017-12-17T05:57:58.770Z,39.37
2017-12-17T06:00:25.512Z,37.80
2017-12-17T06:02:52.267Z,44.80
2017-12-17T06:05:18.993Z,41.57
2017-12-17T06:07:45.729Z,45.63
2017-12-17T06:10:12.458Z,39.63
2017-12-17T06:12:39.194Z,42.90
2017-12-17T06:15:05.937Z,46.83
2017-12-17T06:17:32.662Z,41.23
2017-12-17T06:19:59.408Z,48.03
2017-12-17T06:22:26.182Z,42.93
2017-12-17T06:24:52.894Z,48.27
2017-12-17T06:27:19.646Z,49.30
2017-12-17T06:29:46.393Z,48.73
2017-12-17T06:32:13.134Z,52.30
2017-12-17T06:34:39.866Z,51.13
2017-12-17T06:37:06.602Z,54.07
2017-12-17T06:39:33.331Z,49.37
2017-12-17T06:42:00.092Z,53.07
2017-12-17T06:44:26.860Z,52.57
2017-12-17T06:46:54.400Z,56.00
2017-12-17T06:49:21.923Z,63.43
2017-12-17T06:51:48.674Z,61.87
2017-12-17T06:54:15.416Z,67.53
2017-12-17T06:56:42.156Z,68.73
2017-12-17T06:59:08.895Z,69.27
2017-12-17T07:01:35.647Z,58.60
2017-12-17T07:04:02.375Z,74.73
2017-12-17T07:06:29.111Z,67.90
2017-12-17T07:08:55.948Z,67.30
2017-12-17T07:11:22.664Z,67.30
2017-12-17T07:13:49.409Z,65.10
2017-12-17T07:16:16.139Z,66.20
2017-12-17T07:18:42.877Z,67.37
2017-12-17T07:21:09.623Z,63.60
2017-12-17T07:23:36.387Z,70.87
2017-12-17T07:26:03.130Z,87.13
2017-12-17T07:28:29.883Z,64.03
2017-12-17T07:30:56.642Z,64.53
2017-12-17T07:33:24.136Z,77.97
2017-12-17T07:35:50.877Z,60.20
2017-12-17T07:38:17.619Z,73.37
2017-12-17T07:40:44.340Z,58.50
2017-12-17T07:43:11.095Z,65.93
2017-12-17T07:45:37.847Z,69.77
2017-12-17T07:48:04.727Z,71.83
2017-12-17T07:50:32.291Z,72.23
2017-12-17T07:52:59.951Z,64.00
2017-12-17T07:55:27.479Z,72.20
2017-12-17T07:57:54.199Z,76.43
2017-12-17T08:00:20.938Z,66.27
2017-12-17T08:02:47.676Z,63.30
2017-12-17T08:05:14.450Z,70.43
2017-12-17T08:07:41.950Z,77.23
2017-12-17T08:10:08.690Z,69.77
2017-12-17T08:12:35.417Z,71.37
2017-12-17T08:15:02.230Z,78.37
2017-12-17T08:17:29.727Z,87.00
2017-12-17T08:19:56.519Z,89.03
2017-12-17T08:22:23.257Z,67.00
2017-12-17T08:24:50.008Z,81.10
2017-12-17T08:27:17.586Z,74.60
2017-12-17T08:29:45.064Z,80.30
2017-12-17T08:32:11.829Z,69.13
2017-12-17T08:34:38.584Z,73.87
2017-12-17T08:37:05.312Z,71.00
2017-12-17T08:39:32.068Z,72.83
2017-12-17T08:41:58.813Z,76.20
2017-12-17T08:44:26.360Z,73.50
2017-12-17T08:46:53.130Z,68.30
2017-12-17T08:49:20.581Z,67.23
2017-12-17T08:51:47.351Z,70.83
2017-12-17T08:54:14.082Z,81.93
2017-12-17T08:56:40.821Z,83.90
2017-12-17T08:59:07.568Z,84.17
2017-12-17T09:01:34.304Z,61.50
2017-12-17T09:04:01.098Z,66.00
2017-12-17T09:06:27.817Z,73.93
2017-12-17T09:08:54.737Z,52.57
2017-12-17T09:11:21.463Z,63.70
2017-12-17T09:13:48.205Z,68.83
2017-12-17T09:16:14.935Z,66.50
2017-12-17T09:18:41.711Z,62.03
2017-12-17T09:21:08.449Z,64.80
2017-12-17T09:23:35.344Z,63.27
2017-12-17T09:26:02.145Z,54.33
2017-12-17T09:28:28.885Z,60.43
2017-12-17T09:30:57.139Z,66.10
2017-12-17T09:33:23.980Z,58.37
2017-12-17T09:35:50.733Z,66.80
2017-12-17T09:38:17.474Z,62.87
2017-12-17T09:40:44.218Z,59.27
2017-12-17T09:43:11.728Z,56.83
2017-12-17T09:45:38.473Z,51.47
2017-12-17T09:48:05.199Z,56.50
2017-12-17T09:50:32.027Z,56.93
2017-12-17T09:52:59.643Z,58.60
2017-12-17T09:55:26.363Z,56.20
2017-12-17T09:57:53.103Z,59.07
2017-12-17T10:00:19.858Z,53.80
2017-12-17T10:02:46.709Z,47.43
2017-12-17T10:05:13.425Z,58.00
2017-12-17T10:07:40.190Z,44.23
2017-12-17T10:10:06.932Z,46.93
2017-12-17T10:12:33.685Z,45.43
2017-12-17T10:15:01.207Z,48.97
2017-12-17T10:17:27.946Z,45.03
2017-12-17T10:19:54.752Z,42.33
2017-12-17T10:22:21.580Z,49.40
2017-12-17T10:24:48.344Z,48.77
2017-12-17T10:27:15.116Z,44.87
2017-12-17T10:29:41.852Z,43.03
2017-12-17T10:32:08.586Z,45.90
2017-12-17T10:34:35.331Z,43.30
2017-12-17T10:37:02.074Z,43.23
2017-12-17T10:39:28.804Z,46.23
2017-12-17T10:41:55.564Z,44.47
2017-12-17T10:44:22.292Z,42.47
2017-12-17T10:46:49.036Z,37.30
2017-12-17T10:49:15.771Z,41.53
2017-12-17T10:51:42.516Z,40.77
2017-12-17T10:54:09.238Z,42.20
2017-12-17T10:56:36.000Z,41.67
2017-12-17T10:59:03.584Z,37.67
2017-12-17T11:01:30.355Z,45.33
2017-12-17T11:03:57.090Z,43.53
2017-12-17T11:06:23.820Z,38.60
2017-12-17T11:08:50.569Z,36.60
2017-12-17T11:11:17.308Z,38.57
2017-12-17T11:13:44.060Z,42.90
2017-12-17T11:16:10.791Z,45.33
2017-12-17T11:18:37.593Z,50.03
2017-12-17T11:21:05.078Z,46.23
2017-12-17T11:23:31.819Z,48.23
2017-12-17T11:25:58.693Z,45.87
2017-12-17T11:28:25.455Z,46.87
2017-12-17T11:30:52.991Z,42.03
2017-12-17T11:33:19.750Z,44.07
2017-12-17T11:35:46.497Z,50.30
2017-12-17T11:38:13.983Z,53.27
2017-12-17T11:40:40.735Z,62.73
2017-12-17T11:43:07.592Z,51.57
2017-12-17T11:45:34.346Z,51.77
2017-12-17T11:48:01.075Z,47.20
2017-12-17T11:50:27.825Z,44.37
2017-12-17T11:52:54.583Z,46.37
2017-12-17T11:55:22.129Z,47.77
2017-12-17T11:57:48.837Z,44.90
2017-12-17T12:00:15.563Z,48.37
2017-12-17T12:02:42.328Z,45.67
2017-12-17T12:05:09.126Z,44.87
2017-12-17T12:07:36.063Z,47.90
2017-12-17T12:10:02.871Z,48.27
2017-12-17T12:12:29.608Z,41.93
2017-12-17T12:14:56.340Z,50.53
2017-12-17T12:17:23.089Z,49.03
2017-12-17T12:19:50.627Z,49.70
2017-12-17T12:22:17.378Z,47.73
2017-12-17T12:24:44.113Z,43.57
2017-12-17T12:27:10.853Z,44.10
2017-12-17T12:29:37.620Z,44.37
2017-12-17T12:32:05.132Z,42.73
2017-12-17T12:34:31.884Z,39.23
2017-12-17T12:36:58.627Z,34.23
2017-12-17T12:39:25.432Z,44.63
2017-12-17T12:41:52.150Z,37.70
2017-12-17T12:44:18.934Z,39.50
2017-12-17T12:46:45.664Z,39.23
2017-12-17T12:49:12.413Z,35.90
2017-12-17T12:51:39.203Z,41.30
2017-12-17T12:54:05.958Z,43.30
2017-12-17T12:56:32.779Z,38.07
2017-12-17T12:58:59.494Z,43.87
2017-12-17T13:01:26.255Z,44.33
2017-12-17T13:03:53.016Z,40.53
2017-12-17T13:06:19.761Z,40.87
2017-12-17T13:08:46.489Z,51.83
2017-12-17T13:11:13.245Z,48.40
2017-12-17T13:13:39.988Z,41.80
2017-12-17T13:16:06.730Z,45.60
2017-12-17T13:18:33.485Z,49.97
2017-12-17T13:21:00.249Z,44.40
2017-12-17T13:23:26.968Z,45.43
2017-12-17T13:25:53.723Z,44.87
2017-12-17T13:28:20.465Z,51.13
2017-12-17T13:30:47.981Z,50.10
2017-12-17T13:33:14.709Z,57.50
2017-12-17T13:35:41.571Z,52.20
2017-12-17T13:38:08.731Z,52.63
2017-12-17T13:40:36.288Z,56.67
2017-12-17T13:43:03.034Z,57.00
2017-12-17T13:45:30.548Z,50.97
2017-12-17T13:47:57.312Z,48.60
2017-12-17T13:50:24.044Z,54.20
2017-12-17T13:52:50.811Z,53.80
2017-12-17T13:55:18.315Z,64.87
2017-12-17T13:57:45.112Z,53.10
2017-12-17T14:00:11.848Z,53.67
2017-12-17T14:02:38.673Z,53.67
2017-12-17T14:05:05.407Z,55.43
2017-12-17T14:07:32.147Z,53.60
2017-12-17T14:09:58.905Z,53.03
2017-12-17T14:12:25.644Z,52.07
2017-12-17T14:14:52.382Z,49.37
2017-12-17T14:17:19.909Z,46.83
2017-12-17T14:19:46.668Z,53.07
2017-12-17T14:22:13.491Z,50.57
2017-12-17T14:24:40.247Z,51.83
2017-12-17T14:27:07.016Z,48.77
2017-12-17T14:29:34.511Z,50.20
2017-12-17T14:32:02.406Z,51.53
2017-12-17T14:34:29.156Z,53.23
2017-12-17T14:36:55.989Z,59.67
2017-12-17T14:39:22.718Z,48.67
2017-12-17T14:41:49.466Z,46.77
2017-12-17T14:44:16.211Z,53.60
2017-12-17T14:46:42.947Z,51.10
2017-12-17T14:49:09.752Z,49.13
2017-12-17T14:51:36.458Z,55.07
2017-12-17T14:54:03.196Z,40.07
2017-12-17T14:56:30.707Z,48.43
2017-12-17T14:58:57.509Z,45.63
2017-12-17T15:01:24.260Z,47.20
2017-12-17T15:03:51.043Z,49.57
2017-12-17T15:06:17.800Z,49.37
2017-12-17T15:08:44.564Z,49.03
2017-12-17T15:11:12.175Z,51.07
2017-12-17T15:13:38.929Z,45.13
2017-12-17T15:16:05.692Z,47.00
2017-12-17T15:18:33.209Z,48.73
2017-12-17T15:20:59.997Z,52.47
2017-12-17T15:23:26.728Z,50.93
2017-12-17T15:25:53.512Z,50.03
2017-12-17T15:28:20.257Z,50.93
2017-12-17T15:30:47.007Z,50.97
2017-12-17T15:33:13.746Z,46.23
2017-12-17T15:35:40.558Z,45.57
2017-12-17T15:38:07.306Z,45.80
2017-12-17T15:40:34.037Z,47.33
2017-12-17T15:43:00.780Z,42.87
2017-12-17T15:45:27.504Z,48.70
2017-12-17T15:47:54.256Z,48.13
2017-12-17T15:50:20.996Z,49.67
2017-12-17T15:52:47.690Z,52.17
2017-12-17T15:55:15.231Z,49.37
2017-12-17T15:57:42.208Z,52.90
2017-12-17T16:00:08.947Z,55.13
2017-12-17T16:02:35.684Z,51.40
2017-12-17T16:05:02.451Z,49.13
2017-12-17T16:07:29.200Z,49.63
2017-12-17T16:09:55.955Z,49.30
2017-12-17T16:12:22.703Z,48.13
2017-12-17T16:14:50.255Z,47.47
2017-12-17T16:17:16.997Z,49.90
2017-12-17T16:19:43.747Z,51.07
2017-12-17T16:22:10.481Z,44.43
2017-12-17T16:24:37.426Z,45.97
2017-12-17T16:27:04.160Z,54.10
2017-12-17T16:29:30.909Z,47.00
2017-12-17T16:31:57.656Z,49.40
2017-12-17T16:34:25.174Z,45.77
2017-12-17T16:36:51.919Z,57.20
2017-12-17T16:39:18.677Z,62.17
2017-12-17T16:41:45.414Z,49.87
2017-12-17T16:44:12.154Z,54.57
2017-12-17T16:46:38.891Z,64.73
2017-12-17T16:49:06.412Z,59.87
2017-12-17T16:51:33.163Z,63.53
2017-12-17T16:53:59.916Z,69.73
2017-12-17T16:56:26.673Z,64.57
2017-12-17T16:58:53.398Z,59.47
2017-12-17T17:01:20.156Z,58.90
2017-12-17T17:03:46.906Z,57.80
2017-12-17T17:06:14.430Z,57.43
2017-12-17T17:08:41.190Z,53.97
2017-12-17T17:11:07.910Z,52.07
2017-12-17T17:13:34.800Z,54.07
2017-12-17T17:16:01.655Z,57.63
2017-12-17T17:18:28.413Z,57.33
2017-12-17T17:20:55.150Z,61.43
2017-12-17T17:23:21.922Z,58.30
2017-12-17T17:25:48.672Z,60.27
2017-12-17T17:28:16.186Z,56.83
2017-12-17T17:30:43.122Z,56.47
2017-12-17T17:33:09.879Z,56.23
2017-12-17T17:35:36.620Z,61.13
2017-12-17T17:38:03.357Z,48.97
2017-12-17T17:40:30.155Z,52.87
2017-12-17T17:42:56.932Z,52.30
2017-12-17T17:45:23.740Z,46.07
2017-12-17T17:47:50.487Z,47.00
2017-12-17T17:50:17.262Z,47.77
2017-12-17T17:52:44.232Z,52.20
2017-12-17T17:55:11.184Z,47.53
2017-12-17T17:57:38.742Z,47.47
2017-12-17T18:00:05.501Z,47.00
2017-12-17T18:02:32.273Z,50.53
2017-12-17T18:04:59.074Z,49.30
2017-12-17T18:07:26.587Z,46.73
2017-12-17T18:09:53.387Z,50.53
2017-12-17T18:12:20.241Z,49.37
2017-12-17T18:14:47.074Z,44.03
2017-12-17T18:17:13.887Z,42.83
2017-12-17T18:19:41.414Z,46.80
2017-12-17T18:22:08.279Z,44.03
2017-12-17T18:24:35.958Z,42.53
2017-12-17T18:27:02.751Z,45.40
2017-12-17T18:29:29.749Z,41.17
2017-12-17T18:31:56.632Z,43.57
2017-12-17T18:34:23.530Z,41.40
2017-12-17T18:36:50.368Z,40.67
2017-12-17T18:39:17.410Z,43.47
2017-12-17T18:41:45.180Z,43.93
2017-12-17T18:44:12.220Z,46.23
2017-12-17T18:46:39.206Z,40.70
2017-12-17T18:49:06.209Z,46.00
2017-12-17T18:51:33.263Z,44.63
2017-12-17T18:54:00.300Z,41.37
2017-12-17T18:56:27.344Z,47.53
2017-12-17T18:58:54.361Z,38.03
2017-12-17T19:01:22.163Z,44.37
2017-12-17T19:03:49.204Z,39.90
2017-12-17T19:06:16.350Z,41.70
2017-12-17T19:08:43.398Z,37.13
2017-12-17T19:11:10.505Z,38.20
2017-12-17T19:13:38.306Z,39.73
2017-12-17T19:16:05.457Z,41.67
2017-12-17T19:18:32.503Z,40.27
2017-12-17T19:20:59.549Z,40.60
2017-12-17T19:23:26.595Z,39.93
2017-12-17T19:25:53.637Z,38.40
2017-12-17T19:28:20.685Z,39.97
2017-12-17T19:30:47.731Z,42.37
2017-12-17T19:33:14.776Z,36.70
2017-12-17T19:35:41.823Z,38.20
2017-12-17T19:38:08.869Z,35.40
2017-12-17T19:40:35.810Z,32.13
2017-12-17T19:43:02.864Z,33.60
2017-12-17T19:45:29.932Z,38.07
2017-12-17T19:47:57.127Z,38.07
2017-12-17T19:50:24.925Z,39.87
2017-12-17T19:52:52.069Z,33.00
2017-12-17T19:55:19.113Z,34.77
2017-12-17T19:57:46.365Z,40.80
2017-12-17T20:00:13.410Z,37.13
2017-12-17T20:02:40.456Z,33.50
2017-12-17T20:05:07.467Z,35.47
2017-12-17T20:07:35.265Z,35.57
2017-12-17T20:10:02.381Z,43.07
2017-12-17T20:12:30.175Z,38.80
2017-12-17T20:14:57.222Z,30.73
2017-12-17T20:17:24.270Z,34.30
2017-12-17T20:19:51.314Z,33.87
2017-12-17T20:22:18.360Z,30.50
2017-12-17T20:24:45.407Z,31.37
2017-12-17T20:27:12.524Z,29.37
2017-12-17T20:29:40.316Z,27.93
2017-12-17T20:32:07.372Z,27.17
2017-12-17T20:34:34.411Z,32.03
2017-12-17T20:37:01.427Z,23.27
2017-12-17T20:39:29.217Z,29.33
2017-12-17T20:41:56.266Z,27.43
2017-12-17T20:44:23.309Z,24.07
2017-12-17T20:46:50.467Z,26.67
2017-12-17T20:49:17.508Z,27.40
2017-12-17T20:51:44.524Z,23.53
2017-12-17T20:54:12.314Z,21.33
2017-12-17T20:56:39.332Z,24.03
2017-12-17T20:59:07.123Z,22.83
2017-12-17T21:01:34.173Z,22.33
2017-12-17T21:04:01.218Z,23.60
2017-12-17T21:06:28.259Z,20.27
2017-12-17T21:08:55.305Z,20.37
2017-12-17T21:11:22.352Z,21.00
2017-12-17T21:13:49.400Z,15.40
2017-12-17T21:16:16.355Z,20.07
2017-12-17T21:18:43.223Z,19.20
2017-12-17T21:21:10.033Z,16.53
2017-12-17T21:23:36.775Z,20.53
2017-12-17T21:26:03.559Z,19.43
2017-12-17T21:28:30.386Z,21.27
2017-12-17T21:30:57.145Z,18.67
2017-12-17T21:33:23.953Z,17.70
2017-12-17T21:35:50.687Z,19.53
2017-12-17T21:38:17.422Z,17.07
2017-12-17T21:40:44.178Z,16.07
2017-12-17T21:43:10.982Z,14.03
2017-12-17T21:45:38.495Z,22.27
2017-12-17T21:48:05.300Z,13.70
2017-12-17T21:50:32.020Z,13.27
2017-12-17T21:52:58.777Z,12.90
2017-12-17T21:55:25.538Z,11.13
2017-12-17T21:57:52.283Z,10.60
2017-12-17T22:00:19.216Z,10.93
2017-12-17T22:02:45.997Z,12.27
2017-12-17T22:05:13.774Z,16.97
2017-12-17T22:07:40.464Z,10.60
2017-12-17T22:10:07.232Z,10.83
2017-12-17T22:12:33.945Z,12.40
2017-12-17T22:15:00.693Z,9.60
2017-12-17T22:17:27.426Z,9.27
2017-12-17T22:19:54.228Z,9.87
2017-12-17T22:22:20.946Z,11.27
2017-12-17T22:24:48.452Z,10.63
2017-12-17T22:27:15.188Z,9.90
2017-12-17T22:29:41.938Z,9.97
2017-12-17T22:32:08.667Z,11.40
2017-12-17T22:34:35.420Z,11.73
2017-12-17T22:37:02.183Z,11.90
2017-12-17T22:39:29.679Z,12.67
2017-12-17T22:41:56.533Z,11.50
2017-12-17T22:44:23.275Z,12.70
2017-12-17T22:46:50.053Z,14.70
2017-12-17T22:49:16.783Z,14.60
2017-12-17T22:51:43.508Z,14.20
2017-12-17T22:54:10.248Z,11.90
2017-12-17T22:56:36.991Z,13.20
2017-12-17T22:59:03.779Z,12.53
2017-12-17T23:01:30.540Z,12.67
2017-12-17T23:03:57.284Z,10.87
2017-12-17T23:06:24.016Z,15.00
2017-12-17T23:08:50.740Z,13.40
2017-12-17T23:11:17.457Z,13.97
2017-12-17T23:13:44.966Z,12.40
2017-12-17T23:16:11.718Z,12.60
2017-12-17T23:18:38.471Z,14.90
2017-12-17T23:21:05.278Z,11.43
2017-12-17T23:23:31.990Z,13.07
2017-12-17T23:25:58.741Z,11.83
2017-12-17T23:28:25.468Z,13.43
2017-12-17T23:30:52.206Z,14.07
2017-12-17T23:33:19.062Z,14.20
2017-12-17T23:35:45.981Z,12.03
2017-12-17T23:38:12.721Z,12.93
2017-12-17T23:40:40.246Z,14.27
2017-12-17T23:43:06.981Z,11.23
2017-12-17T23:45:33.800Z,10.77
2017-12-17T23:48:00.520Z,15.13
2017-12-17T23:50:27.252Z,11.73
2017-12-17T23:52:54.208Z,13.67
2017-12-17T23:55:20.936Z,13.13
2017-12-17T23:57:47.678Z,13.10
